createdAt,value
2022-10-06T03:39:02.632Z,10.40
2022-10-06T03:42:05.897Z,10.40
2022-10-06T03:45:08.972Z,9.97
2022-10-06T03:48:11.847Z,9.89
2022-10-06T03:51:24.208Z,9.90
2022-10-06T03:54:26.823Z,9.81
2022-10-06T03:57:29.214Z,9.90
2022-10-06T04:00:31.958Z,9.88
2022-10-06T04:03:35.421Z,9.85
2022-10-06T04:06:40.136Z,9.87
2022-10-06T04:09:43.181Z,9.87
2022-10-06T04:12:46.345Z,9.88
2022-10-06T04:15:49.189Z,9.93
2022-10-06T04:18:54.463Z,9.85
2022-10-06T04:21:57.071Z,9.85
2022-10-06T04:24:59.516Z,9.82
2022-10-06T04:28:02.328Z,9.86
2022-10-06T04:31:11.601Z,10.02
2022-10-06T04:34:15.871Z,9.91
2022-10-06T04:37:18.956Z,9.82
2022-10-06T04:40:21.724Z,9.79
2022-10-06T04:43:25.008Z,9.75
2022-10-06T04:46:44.910Z,9.75
2022-10-06T04:49:47.954Z,9.76
2022-10-06T04:52:52.943Z,9.82
2022-10-06T04:56:12.717Z,9.75
2022-10-06T04:59:16.125Z,9.87
2022-10-06T05:02:20.522Z,9.87
2022-10-06T05:05:24.069Z,9.84
2022-10-06T05:08:27.842Z,9.79
2022-10-06T05:11:31.853Z,9.87
2022-10-06T05:14:34.179Z,9.96
2022-10-06T05:17:36.827Z,9.87
2022-10-06T05:20:40.306Z,9.84
2022-10-06T05:23:46.021Z,9.89
2022-10-06T05:26:49.056Z,10.00
2022-10-06T05:29:52.272Z,10.04
2022-10-06T05:32:54.617Z,10.08
2022-10-06T05:35:59.703Z,10.13
2022-10-06T05:39:03.766Z,10.26
2022-10-06T05:42:08.453Z,10.38
2022-10-06T05:45:11.326Z,10.46
2022-10-06T05:48:13.982Z,10.50
2022-10-06T05:51:18.317Z,10.73
2022-10-06T05:54:21.010Z,10.83
2022-10-06T05:57:24.017Z,10.91
2022-10-06T06:00:26.764Z,10.97
2022-10-06T06:03:29.379Z,11.08
2022-10-06T06:06:37.081Z,11.17
2022-10-06T06:09:40.276Z,11.29
2022-10-06T06:12:42.744Z,11.33
2022-10-06T06:16:01.923Z,11.49
2022-10-06T06:19:06.014Z,11.55
2022-10-06T06:22:09.298Z,11.57
2022-10-06T06:25:12.946Z,11.73
2022-10-06T06:28:16.163Z,11.85
2022-10-06T06:31:26.531Z,11.96
2022-10-06T06:34:30.090Z,12.03
2022-10-06T06:37:33.393Z,11.97
2022-10-06T06:40:40.677Z,11.91
2022-10-06T06:43:43.861Z,11.82
2022-10-06T06:46:49.269Z,11.82
2022-10-06T06:49:52.734Z,11.85
2022-10-06T06:52:55.463Z,11.85
2022-10-06T06:55:58.026Z,11.84
2022-10-06T06:59:02.296Z,11.89
2022-10-06T07:02:04.874Z,11.97
2022-10-06T07:05:08.303Z,12.06
2022-10-06T07:08:11.845Z,12.17
2022-10-06T07:11:17.559Z,12.35
2022-10-06T07:14:22.527Z,12.52
2022-10-06T07:17:43.681Z,12.64
2022-10-06T07:21:04.939Z,12.71
2022-10-06T07:24:27.777Z,12.87
2022-10-06T07:27:32.171Z,12.93
2022-10-06T07:30:40.459Z,13.07
2022-10-06T07:33:43.701Z,13.15
2022-10-06T07:36:48.657Z,13.32
2022-10-06T07:39:51.730Z,13.69
2022-10-06T07:42:54.477Z,14.30
2022-10-06T07:45:57.880Z,14.56
2022-10-06T07:49:01.396Z,14.51
2022-10-06T07:52:04.340Z,14.76
2022-10-06T07:55:07.422Z,15.00
2022-10-06T07:58:22.432Z,14.84
2022-10-06T08:01:30.232Z,14.76
2022-10-06T08:04:33.096Z,14.84
2022-10-06T08:07:35.694Z,14.86
2022-10-06T08:10:38.581Z,14.92
2022-10-06T08:13:43.162Z,15.01
2022-10-06T08:16:46.165Z,15.28
2022-10-06T08:19:48.644Z,15.50
2022-10-06T08:22:51.286Z,15.70
2022-10-06T08:25:55.453Z,15.75
2022-10-06T08:28:59.737Z,15.79
2022-10-06T08:32:03.124Z,15.95
2022-10-06T08:35:05.879Z,16.39
2022-10-06T08:38:08.191Z,19.06
2022-10-06T08:41:25.272Z,21.50
2022-10-06T08:44:39.110Z,25.99
2022-10-06T08:47:50.713Z,28.47
2022-10-06T08:51:19.734Z,30.41
2022-10-06T08:54:33.578Z,31.03
2022-10-06T08:57:55.355Z,29.07
2022-10-06T09:01:14.219Z,25.68
2022-10-06T09:04:28.142Z,23.43
2022-10-06T09:08:07.625Z,22.06
2022-10-06T09:11:22.005Z,20.51
2022-10-06T09:14:37.511Z,19.33
2022-10-06T09:17:50.172Z,18.71
2022-10-06T09:21:02.826Z,18.79
2022-10-06T09:24:15.316Z,18.79
2022-10-06T09:27:24.317Z,18.68
2022-10-06T09:30:27.276Z,18.60
2022-10-06T09:33:36.827Z,18.43
2022-10-06T09:37:03.229Z,18.62
2022-10-06T09:40:44.728Z,18.92
2022-10-06T09:43:57.361Z,19.10
2022-10-06T09:47:00.005Z,19.05
2022-10-06T09:50:16.711Z,19.21
2022-10-06T09:53:21.598Z,19.37
2022-10-06T09:56:24.190Z,19.20
2022-10-06T09:59:39.083Z,19.03
2022-10-06T10:02:42.687Z,19.02
2022-10-06T10:05:50.506Z,19.29
2022-10-06T10:09:14.724Z,19.27
2022-10-06T10:12:31.064Z,19.22
2022-10-06T10:15:48.495Z,19.25
2022-10-06T10:18:51.488Z,19.42
2022-10-06T10:21:57.940Z,19.45
2022-10-06T10:25:29.592Z,19.79
2022-10-06T10:28:52.100Z,19.90
2022-10-06T10:32:02.802Z,20.06
2022-10-06T10:35:28.344Z,20.19
2022-10-06T10:38:32.276Z,20.26
2022-10-06T10:41:44.032Z,20.27
2022-10-06T10:44:54.993Z,20.08
2022-10-06T10:47:59.457Z,19.89
2022-10-06T10:51:19.522Z,19.62
2022-10-06T10:54:26.703Z,19.56
2022-10-06T10:57:43.938Z,19.49
2022-10-06T11:00:53.935Z,19.62
2022-10-06T11:03:58.718Z,19.60
2022-10-06T11:07:16.947Z,19.50
2022-10-06T11:10:50.386Z,19.46
2022-10-06T11:13:56.505Z,19.33
2022-10-06T11:17:13.297Z,19.38
2022-10-06T11:20:47.072Z,19.40
2022-10-06T11:23:57.331Z,19.43
2022-10-06T11:27:17.555Z,19.60
2022-10-06T11:30:26.368Z,19.48
2022-10-06T11:33:45.686Z,19.31
2022-10-06T11:36:51.087Z,19.36
2022-10-06T11:40:25.653Z,19.50
2022-10-06T11:43:55.271Z,19.56
2022-10-06T11:47:36.301Z,19.71
2022-10-06T11:50:42.276Z,19.92
2022-10-06T11:53:45.071Z,20.04
2022-10-06T11:56:47.938Z,20.25
2022-10-06T11:59:56.280Z,20.40
2022-10-06T12:03:33.528Z,20.59
2022-10-06T12:06:42.481Z,20.78
2022-10-06T12:09:46.176Z,20.93
2022-10-06T12:13:06.116Z,20.81
2022-10-06T12:20:13.204Z,20.59
2022-10-06T12:23:38.937Z,20.57
2022-10-06T12:26:44.553Z,20.54
2022-10-06T12:29:54.453Z,20.64
2022-10-06T12:32:59.004Z,20.61
2022-10-06T12:36:03.393Z,20.53
2022-10-06T12:39:23.737Z,20.72
2022-10-06T12:42:31.244Z,20.78
2022-10-06T12:45:34.446Z,20.79
2022-10-06T12:48:53.655Z,20.89
2022-10-06T12:51:59.677Z,21.05
2022-10-06T12:55:14.540Z,20.94
2022-10-06T12:58:28.734Z,20.73
2022-10-06T13:01:32.690Z,20.75
2022-10-06T13:04:44.886Z,20.93
2022-10-06T13:08:04.569Z,21.16
2022-10-06T13:11:29.797Z,21.20
2022-10-06T13:14:32.096Z,21.31
2022-10-06T13:17:35.314Z,21.40
2022-10-06T13:20:45.896Z,21.56
2022-10-06T13:23:49.479Z,21.67
2022-10-06T13:26:52.581Z,21.83
2022-10-06T13:30:12.566Z,21.87
2022-10-06T13:33:15.547Z,21.75
2022-10-06T13:36:19.716Z,21.75
2022-10-06T13:39:24.555Z,21.60
2022-10-06T13:42:28.814Z,21.44
2022-10-06T13:45:31.775Z,21.31
2022-10-06T13:48:34.596Z,21.13
2022-10-06T13:51:37.096Z,21.05
2022-10-06T13:55:00.485Z,21.04
2022-10-06T13:58:06.572Z,21.11
2022-10-06T14:01:13.039Z,21.15
2022-10-06T14:04:20.787Z,21.22
2022-10-06T14:07:23.059Z,21.21
2022-10-06T14:10:37.795Z,21.22
2022-10-06T14:13:52.083Z,21.21
2022-10-06T14:16:55.250Z,21.12
2022-10-06T14:19:57.856Z,21.03
2022-10-06T14:23:00.524Z,20.97
2022-10-06T14:26:02.882Z,20.92
2022-10-06T14:29:05.641Z,20.91
2022-10-06T14:32:13.210Z,20.81
2022-10-06T14:35:15.740Z,20.76
2022-10-06T14:38:19.215Z,20.73
2022-10-06T14:41:24.958Z,20.67
2022-10-06T14:44:27.264Z,20.58
2022-10-06T14:47:31.283Z,20.51
2022-10-06T14:50:35.021Z,20.35
2022-10-06T14:53:39.465Z,20.23
2022-10-06T14:56:42.402Z,20.05
2022-10-06T14:59:45.227Z,20.07
2022-10-06T15:02:48.094Z,19.97
2022-10-06T15:06:09.413Z,20.11
2022-10-06T15:09:11.940Z,20.14
2022-10-06T15:12:14.704Z,19.81
2022-10-06T15:15:17.122Z,19.84
2022-10-06T15:18:19.723Z,19.61
2022-10-06T15:21:23.733Z,19.53
2022-10-06T15:24:26.328Z,19.43
2022-10-06T15:27:47.033Z,19.25
2022-10-06T15:30:50.615Z,19.24
2022-10-06T15:33:54.775Z,19.22
2022-10-06T15:36:58.394Z,19.26
2022-10-06T15:40:01.642Z,19.25
2022-10-06T15:43:04.218Z,19.25
2022-10-06T15:46:06.571Z,19.24
2022-10-06T15:49:10.780Z,19.17
2022-10-06T15:52:13.655Z,19.12
